Time;durP1;ratioP1;P1;durP2;ratioP2;P2;SDS_P1;SDS_P2;PMS_P1;PMS_P2;Temp;Humidity;BMP_temperature;BMP_pressure;BME280_temperature;BME280_humidity;BME280_pressure;Samples;Min_cycle;Max_cycle;Signal;HPM_P1;HPM_P2
2022/10/27 00:01:34;;;;;;;9.82;6.22;;;;;;;23.55;52.56;97734.25;5155100;27;20090;-32
2022/10/27 00:03:59;;;;;;;13.38;6.82;;;;;;;23.54;52.68;97731.94;5154972;27;20026;-32
2022/10/27 00:06:25;;;;;;;17.60;6.30;;;;;;;23.53;52.82;97733.97;5155137;27;20022;-32
2022/10/27 00:08:51;;;;;;;12.25;6.15;;;;;;;23.49;53.17;97725.03;5154807;27;20022;-31
2022/10/27 00:11:17;;;;;;;13.90;6.93;;;;;;;23.53;52.95;97720.13;5154995;27;20532;-32
2022/10/27 00:13:42;;;;;;;15.38;7.18;;;;;;;23.54;52.71;97723.66;5154792;27;20121;-31
2022/10/27 00:16:14;;;;;;;13.02;6.03;;;;;;;23.50;53.19;97725.81;5155077;27;20043;-32
2022/10/27 00:18:41;;;;;;;15.88;7.10;;;;;;;23.49;53.10;97716.00;5154971;27;20026;-31
2022/10/27 00:21:15;;;;;;;14.48;6.50;;;;;;;23.46;52.96;97720.50;5154917;27;20097;-32
2022/10/27 00:23:41;;;;;;;14.60;6.47;;;;;;;23.49;53.22;97718.78;5154847;27;20072;-32
2022/10/27 00:26:10;;;;;;;15.63;6.90;;;;;;;23.50;53.04;97717.50;5154762;27;20034;-32
2022/10/27 00:28:36;;;;;;;18.13;6.78;;;;;;;23.46;53.04;97711.44;5154631;27;20037;-32
2022/10/27 00:31:05;;;;;;;15.85;5.90;;;;;;;23.49;53.11;97708.44;5154806;27;20022;-32
2022/10/27 00:33:30;;;;;;;14.02;6.47;;;;;;;23.50;52.68;97715.53;5145853;27;20058;-32
2022/10/27 00:36:01;;;;;;;11.25;6.05;;;;;;;23.46;52.92;97717.72;5154949;27;20554;-32
2022/10/27 00:38:27;;;;;;;10.25;5.80;;;;;;;23.44;52.98;97711.13;5158969;27;20015;-32
2022/10/27 00:40:52;;;;;;;14.98;6.38;;;;;;;23.49;52.90;97713.25;5158931;27;20477;-32
2022/10/27 00:43:44;;;;;;;15.88;6.55;;;;;;;23.53;52.93;97713.81;5140360;27;20499;-32
2022/10/27 00:46:09;;;;;;;14.80;6.32;;;;;;;23.52;52.79;97713.03;5144879;27;20061;-32
2022/10/27 00:48:35;;;;;;;14.52;6.55;;;;;;;23.49;52.90;97718.78;5137977;27;20412;-32
2022/10/27 00:51:02;;;;;;;14.15;5.70;;;;;;;23.52;52.67;97717.81;5137741;27;20059;-32
2022/10/27 00:53:28;;;;;;;13.05;5.88;;;;;;;23.47;52.87;97724.03;5137531;27;20035;-32
2022/10/27 00:55:54;;;;;;;14.80;6.25;;;;;;;23.45;53.04;97718.97;5137953;27;20034;-31
2022/10/27 00:58:20;;;;;;;15.60;5.68;;;;;;;23.51;52.65;97719.06;5137632;27;20023;-32
2022/10/27 01:00:46;;;;;;;13.07;6.50;;;;;;;23.48;52.52;97722.78;5137677;27;20140;-32
2022/10/27 01:03:15;;;;;;;14.75;5.90;;;;;;;23.45;52.52;97718.97;5137650;27;20027;-32
2022/10/27 01:05:42;;;;;;;11.52;5.60;;;;;;;23.40;52.78;97716.09;5137432;27;20061;-32
2022/10/27 01:08:08;;;;;;;16.25;6.22;;;;;;;23.45;52.70;97716.19;5137491;27;20015;-31
2022/10/27 01:10:34;;;;;;;12.75;5.82;;;;;;;23.42;52.49;97730.22;5137494;27;20026;-31
2022/10/27 01:13:00;;;;;;;13.35;5.90;;;;;;;23.43;52.52;97720.69;5137851;27;20057;-31
2022/10/27 01:15:34;;;;;;;14.05;5.93;;;;;;;23.40;52.71;97714.09;5137285;27;20072;-32
2022/10/27 01:18:08;;;;;;;17.42;6.47;;;;;;;23.41;52.86;97717.63;5137280;27;20463;-31
2022/10/27 01:20:53;;;;;;;12.10;5.47;;;;;;;23.45;52.28;97723.75;5137216;27;20027;-32
2022/10/27 01:23:50;;;;;;;18.45;5.95;;;;;;;23.42;52.34;97719.16;5137247;27;20026;-32
2022/10/27 01:26:36;;;;;;;13.55;6.22;;;;;;;23.46;52.36;97719.72;5137116;27;20420;-32
2022/10/27 01:29:38;;;;;;;14.88;6.28;;;;;;;23.42;52.16;97725.47;5136948;27;20034;-33
2022/10/27 01:32:21;;;;;;;15.98;5.95;;;;;;;23.38;52.29;97726.91;5137134;27;20023;-32
2022/10/27 01:35:00;;;;;;;16.52;5.85;;;;;;;23.38;52.38;97724.13;5137012;27;20516;-32
2022/10/27 01:37:48;;;;;;;15.88;5.57;;;;;;;23.44;52.43;97727.75;5137001;27;20502;-31
2022/10/27 01:40:25;;;;;;;12.63;5.53;;;;;;;23.43;52.13;97721.44;5096179;27;20088;-32
2022/10/27 01:43:07;;;;;;;13.15;5.68;;;;;;;23.45;52.10;97726.50;5136816;27;20114;-32
2022/10/27 01:45:36;;;;;;;16.77;5.93;;;;;;;23.43;52.24;97729.75;5136874;27;20379;-32
2022/10/27 01:48:04;;;;;;;16.65;5.47;;;;;;;23.43;52.24;97731.75;5136380;27;20031;-32
2022/10/27 01:50:33;;;;;;;14.52;6.18;;;;;;;23.35;52.51;97725.88;5136631;27;20030;-32
2022/10/27 01:52:58;;;;;;;14.23;5.70;;;;;;;23.31;52.33;97724.53;5136477;27;20023;-32
2022/10/27 01:55:50;;;;;;;15.18;5.55;;;;;;;23.33;52.47;97722.06;5136618;27;20038;-32
2022/10/27 01:58:44;;;;;;;14.77;6.47;;;;;;;23.36;52.16;97727.41;5125594;27;20035;-32
2022/10/27 02:01:38;;;;;;;13.20;5.50;;;;;;;23.33;52.37;97727.59;5136467;27;20015;-32
2022/10/27 02:04:07;;;;;;;;;;;;;;;23.37;52.04;97722.63;5136908;27;20030;-32
2022/10/27 02:06:39;;;;;;;12.82;5.65;;;;;;;23.37;52.00;97728.91;5136377;27;19907;-33
2022/10/27 02:09:15;;;;;;;12.98;5.78;;;;;;;23.37;51.89;97723.34;5136334;27;20027;-32
2022/10/27 02:11:45;;;;;;;18.55;5.82;;;;;;;23.36;52.08;97716.31;5136369;27;20475;-33
2022/10/27 02:14:12;;;;;;;14.95;5.15;;;;;;;23.34;52.02;97718.81;5117840;27;20102;-32
2022/10/27 02:16:52;;;;;;;16.98;5.22;;;;;;;23.27;51.95;97714.41;5136451;27;20362;-32
2022/10/27 02:19:24;;;;;;;13.57;5.25;;;;;;;23.29;51.85;97716.69;5136423;27;20420;-33
2022/10/27 02:21:53;;;;;;;16.02;5.38;;;;;;;23.29;51.79;97713.94;5136225;27;20430;-33
2022/10/27 02:24:19;;;;;;;17.58;6.07;;;;;;;23.27;51.83;97711.66;5136260;27;20023;-33
2022/10/27 02:26:52;;;;;;;15.65;5.78;;;;;;;23.32;51.76;97724.06;5135912;27;20518;-32
2022/10/27 02:29:46;;;;;;;15.98;6.03;;;;;;;23.25;51.86;97711.34;5136023;27;20493;-31
2022/10/27 02:32:16;;;;;;;16.70;6.45;;;;;;;23.29;52.03;97720.25;5131741;27;20050;-32
2022/10/27 02:34:43;;;;;;;16.58;6.53;;;;;;;23.31;51.63;97714.22;5135992;27;20019;-32
2022/10/27 02:37:15;;;;;;;13.48;5.03;;;;;;;23.26;51.72;97717.66;5135549;27;20058;-32
2022/10/27 02:39:40;;;;;;;15.63;6.53;;;;;;;23.31;51.52;97714.22;5135707;27;20114;-32
2022/10/27 02:42:06;;;;;;;14.98;5.75;;;;;;;23.25;51.96;97716.13;5136011;27;20094;-32
2022/10/27 02:44:33;;;;;;;15.80;5.65;;;;;;;23.23;51.76;97716.63;5135626;27;20023;-32
2022/10/27 02:46:58;;;;;;;12.88;5.70;;;;;;;23.19;51.66;97718.81;5135532;27;20039;-34
2022/10/27 02:49:24;;;;;;;17.10;6.25;;;;;;;23.18;51.80;97720.06;5135884;27;20031;-32
2022/10/27 02:51:49;;;;;;;12.95;5.50;;;;;;;23.26;51.41;97710.13;5135504;27;20031;-32
2022/10/27 02:54:15;;;;;;;13.07;4.82;;;;;;;23.22;51.37;97726.19;5135092;27;20046;-32
2022/10/27 02:56:40;;;;;;;13.15;4.82;;;;;;;23.22;51.56;97723.41;5135343;27;20046;-32
2022/10/27 02:59:05;;;;;;;15.38;5.45;;;;;;;23.25;51.29;97722.44;5134507;27;20023;-32
2022/10/27 03:01:31;;;;;;;18.75;5.97;;;;;;;23.24;51.10;97720.91;5135319;27;20042;-32
2022/10/27 03:03:58;;;;;;;16.88;5.78;;;;;;;23.23;51.59;97716.63;5116479;27;20022;-32
2022/10/27 03:06:23;;;;;;;16.80;6.07;;;;;;;23.22;51.19;97720.66;5135476;27;20027;-32
2022/10/27 03:08:49;;;;;;;16.83;5.38;;;;;;;23.16;51.38;97717.00;5135188;27;20468;-32
2022/10/27 03:11:14;;;;;;;16.23;5.40;;;;;;;23.22;51.16;97723.41;5135025;27;20034;-32
2022/10/27 03:13:40;;;;;;;15.32;5.63;;;;;;;23.18;50.78;97720.06;5135230;27;20026;-32
2022/10/27 03:16:05;;;;;;;15.63;5.75;;;;;;;23.20;51.08;97728.66;5135275;27;20027;-32
2022/10/27 03:18:31;;;;;;;16.52;5.75;;;;;;;23.18;50.90;97720.06;5116540;27;20039;-32
2022/10/27 03:20:56;;;;;;;17.85;6.20;;;;;;;23.23;50.87;97722.16;5135008;27;20462;-32
2022/10/27 03:23:22;;;;;;;14.40;5.10;;;;;;;23.18;50.76;97717.31;5134908;27;20020;-32
2022/10/27 03:25:47;;;;;;;13.82;5.63;;;;;;;23.18;50.75;97722.84;5134632;27;20031;-33
2022/10/27 03:28:13;;;;;;;13.05;5.32;;;;;;;23.22;50.84;97720.66;5134815;27;20019;-32
2022/10/27 03:30:39;;;;;;;14.73;5.38;;;;;;;23.16;50.67;97719.78;5134924;27;20113;-32
2022/10/27 03:33:04;;;;;;;16.17;5.88;;;;;;;23.20;51.07;97725.13;5134711;27;20184;-32
2022/10/27 03:35:30;;;;;;;15.45;5.70;;;;;;;23.12;50.60;97721.97;5134791;27;20102;-32
2022/10/27 03:37:57;;;;;;;13.55;5.10;;;;;;;23.09;50.54;97713.88;5134775;27;20455;-34
2022/10/27 03:40:23;;;;;;;15.73;5.43;;;;;;;23.18;50.94;97709.00;5134550;27;20037;-32
2022/10/27 03:42:49;;;;;;;15.45;5.32;;;;;;;23.12;50.53;97713.66;5134670;27;20033;-32
2022/10/27 03:45:15;;;;;;;18.20;5.47;;;;;;;23.13;50.66;97714.44;5134673;27;20043;-32
2022/10/27 03:47:40;;;;;;;11.75;5.40;;;;;;;23.14;50.61;97711.19;5134451;27;20026;-32
2022/10/27 03:50:06;;;;;;;15.43;5.32;;;;;;;23.11;50.17;97717.69;5134598;27;20027;-32
2022/10/27 03:52:32;;;;;;;14.23;5.30;;;;;;;23.04;50.52;97718.06;5134376;27;20027;-33
2022/10/27 03:54:57;;;;;;;14.55;4.95;;;;;;;23.14;50.04;97716.72;5134273;27;20050;-32
2022/10/27 03:57:23;;;;;;;16.80;5.30;;;;;;;23.10;49.83;97713.41;5134724;27;20030;-32
2022/10/27 03:59:48;;;;;;;14.48;5.13;;;;;;;23.10;50.37;97718.19;5134202;28;20027;-33
2022/10/27 04:02:14;;;;;;;19.52;5.95;;;;;;;23.12;50.31;97721.97;5134246;28;20123;-32
2022/10/27 04:04:39;;;;;;;14.77;5.82;;;;;;;23.12;50.32;97719.19;5134591;28;20060;-33
2022/10/27 04:07:05;;;;;;;15.38;5.80;;;;;;;23.10;49.96;97732.78;5134053;28;20099;-34
2022/10/27 04:09:30;;;;;;;12.70;5.07;;;;;;;23.11;50.06;97733.53;5135324;27;20015;-32
2022/10/27 04:11:56;;;;;;;14.75;5.07;;;;;;;23.09;49.91;97731.25;5138468;27;20107;-32
2022/10/27 04:14:21;;;;;;;16.92;6.20;;;;;;;23.07;49.77;97727.44;5138317;27;20375;-33
2022/10/27 04:16:50;;;;;;;15.77;5.97;;;;;;;23.07;50.25;97730.97;5138344;27;20468;-32
2022/10/27 04:19:19;;;;;;;15.20;5.40;;;;;;;23.05;50.02;97727.91;5138461;27;20023;-32
2022/10/27 04:21:45;;;;;;;12.57;5.45;;;;;;;23.11;49.66;97726.00;5138691;27;20023;-32
2022/10/27 04:24:11;;;;;;;15.35;5.63;;;;;;;23.10;49.91;97734.78;5138486;27;20060;-32
2022/10/27 04:26:37;;;;;;;14.55;4.90;;;;;;;23.04;50.10;97731.91;5138305;27;20084;-32
2022/10/27 04:29:03;;;;;;;16.67;5.68;;;;;;;23.08;49.93;97734.50;5138233;27;20031;-32
2022/10/27 04:31:28;;;;;;;14.02;5.13;;;;;;;23.02;49.91;97730.84;5138328;27;20461;-32
2022/10/27 04:33:54;;;;;;;21.17;6.05;;;;;;;23.04;49.65;97731.91;5137940;27;20023;-32
2022/10/27 04:36:19;;;;;;;19.35;6.47;;;;;;;23.00;50.16;97730.56;5138199;27;20023;-32
2022/10/27 04:38:48;;;;;;;15.50;5.82;;;;;;;23.04;49.98;97736.69;5137957;27;20104;-32
2022/10/27 04:41:14;;;;;;;20.77;6.10;;;;;;;23.04;49.71;97736.69;5138266;27;20103;-32
2022/10/27 04:43:39;;;;;;;13.73;5.85;;;;;;;22.99;49.97;97727.06;5137997;27;20102;-34
2022/10/27 04:46:05;;;;;;;11.07;4.68;;;;;;;23.02;50.03;97739.91;5137915;27;20062;-32
2022/10/27 04:48:30;;;;;;;16.70;5.90;;;;;;;23.09;49.98;97738.78;5138035;27;20023;-32
2022/10/27 04:50:56;;;;;;;19.70;5.20;;;;;;;23.05;49.75;97743.75;5137762;27;20435;-32
2022/10/27 04:53:21;;;;;;;12.23;5.50;;;;;;;23.03;49.80;97751.75;5137551;27;20080;-32
2022/10/27 04:55:50;;;;;;;16.85;6.28;;;;;;;23.02;49.97;97747.47;5137775;27;20023;-32
2022/10/27 04:58:16;;;;;;;14.02;5.90;;;;;;;22.99;50.15;97738.13;5137923;27;20106;-32
2022/10/27 05:00:41;;;;;;;15.30;5.85;;;;;;;23.07;49.80;97736.50;5137555;27;20069;-32
2022/10/27 05:03:07;;;;;;;17.60;6.10;;;;;;;23.00;49.91;97752.69;5137598;27;20075;-32
2022/10/27 05:05:32;;;;;;;18.63;6.07;;;;;;;23.01;49.89;97737.63;5137636;27;20034;-32
2022/10/27 05:08:00;;;;;;;16.45;6.28;;;;;;;23.00;49.86;97736.09;5137569;27;20030;-32
2022/10/27 05:10:27;;;;;;;14.75;6.25;;;;;;;23.08;49.71;97740.78;5137259;27;20027;-32
2022/10/27 05:12:52;;;;;;;16.50;6.13;;;;;;;23.06;49.79;97734.19;5137768;27;20096;-33
2022/10/27 05:15:18;;;;;;;16.27;5.68;;;;;;;23.00;49.91;97731.34;5137350;27;20469;-32
2022/10/27 05:17:43;;;;;;;17.40;6.10;;;;;;;23.00;49.68;97739.63;5137237;27;20019;-32
2022/10/27 05:20:10;;;;;;;20.33;6.78;;;;;;;22.94;49.97;97744.31;5137507;27;20483;-32
2022/10/27 05:22:37;;;;;;;15.75;6.60;;;;;;;23.02;50.03;97737.16;5136221;27;20027;-32
2022/10/27 05:25:03;;;;;;;14.23;5.78;;;;;;;23.01;50.22;97738.41;5137101;27;20042;-32
2022/10/27 05:27:30;;;;;;;12.77;5.32;;;;;;;23.05;49.75;97744.50;5144515;27;20098;-32
2022/10/27 05:29:55;;;;;;;17.88;6.13;;;;;;;23.00;49.82;97747.16;5155942;27;20030;-32
2022/10/27 05:32:21;;;;;;;14.50;5.57;;;;;;;22.99;49.92;97740.13;5155885;27;20428;-33
2022/10/27 05:34:46;;;;;;;15.52;5.90;;;;;;;23.01;50.04;97751.47;5155759;27;20022;-33
2022/10/27 05:37:12;;;;;;;14.15;5.82;;;;;;;23.00;49.93;97741.63;5155635;27;20062;-32
2022/10/27 05:39:37;;;;;;;15.48;5.57;;;;;;;22.98;49.98;97750.44;5155390;27;20079;-32
2022/10/27 05:42:03;;;;;;;15.15;5.72;;;;;;;23.01;49.79;97749.47;5153624;27;20056;-32
2022/10/27 05:44:28;;;;;;;18.98;6.28;;;;;;;23.01;49.73;97752.22;5155517;27;20466;-32
2022/10/27 05:46:54;;;;;;;16.95;6.32;;;;;;;23.00;50.18;97744.41;5155581;27;20022;-32
2022/10/27 05:49:20;;;;;;;14.00;5.88;;;;;;;22.90;50.32;97747.28;5155446;27;20027;-32
2022/10/27 05:51:48;;;;;;;18.27;6.18;;;;;;;22.93;50.02;97751.09;5153769;27;20029;-33
2022/10/27 05:54:14;;;;;;;13.63;5.80;;;;;;;22.98;49.88;97750.44;5136377;27;20039;-32
2022/10/27 05:56:39;;;;;;;14.25;5.70;;;;;;;22.99;49.88;97754.72;5136505;27;20034;-32
2022/10/27 05:59:05;;;;;;;15.73;6.18;;;;;;;22.86;50.22;97762.56;5117989;27;20471;-32
2022/10/27 06:01:30;;;;;;;14.35;5.43;;;;;;;22.87;50.11;97759.28;5137515;27;20019;-32
2022/10/27 06:03:56;;;;;;;19.27;6.95;;;;;;;22.85;50.21;97766.56;5157311;27;20046;-32
2022/10/27 06:06:22;;;;;;;17.35;5.97;;;;;;;22.99;49.93;97765.78;5157138;27;20462;-32
2022/10/27 06:08:47;;;;;;;13.95;6.18;;;;;;;22.97;49.76;97767.50;5157067;27;20486;-33
2022/10/27 06:11:12;;;;;;;15.65;5.82;;;;;;;22.94;50.08;97772.00;5157012;27;20029;-32
2022/10/27 06:13:38;;;;;;;15.80;6.32;;;;;;;23.00;49.91;97774.84;5156983;27;20095;-32
2022/10/27 06:16:04;;;;;;;11.93;6.00;;;;;;;23.00;50.08;97778.38;5156801;27;20015;-32
2022/10/27 06:18:29;;;;;;;13.48;6.00;;;;;;;22.93;49.98;97778.75;5140724;27;20033;-32
2022/10/27 06:20:55;;;;;;;16.15;6.30;;;;;;;22.79;50.55;97787.81;5156171;27;20030;-32
2022/10/27 06:23:20;;;;;;;18.25;6.00;;;;;;;22.85;49.96;97788.69;5156384;27;20018;-32
2022/10/27 06:25:46;;;;;;;14.35;6.32;;;;;;;22.98;49.86;97783.63;5156537;27;20049;-32
2022/10/27 06:28:11;;;;;;;18.83;6.65;;;;;;;22.94;50.09;97794.13;5156925;27;20032;-32
2022/10/27 06:30:37;;;;;;;12.60;5.70;;;;;;;23.00;49.74;97794.97;5156925;27;20029;-32
2022/10/27 06:33:03;;;;;;;16.83;5.93;;;;;;;22.90;49.96;97799.84;5155340;27;20025;-34
2022/10/27 06:35:29;;;;;;;13.60;5.63;;;;;;;22.92;49.95;97802.13;5156713;27;20038;-32
2022/10/27 06:37:54;;;;;;;17.13;6.05;;;;;;;22.92;49.95;97816.72;5156506;27;20030;-32
2022/10/27 06:40:21;;;;;;;16.83;6.40;;;;;;;23.00;50.10;97816.34;5156259;27;20102;-32
2022/10/27 06:42:50;;;;;;;14.27;5.68;;;;;;;22.96;50.12;97818.53;5156459;27;20033;-32
2022/10/27 06:45:18;;;;;;;14.68;5.65;;;;;;;22.90;50.02;97829.50;5156355;27;20019;-32
2022/10/27 06:47:44;;;;;;;15.18;5.60;;;;;;;22.97;49.98;97826.38;5156299;27;20466;-32
2022/10/27 06:50:11;;;;;;;12.82;6.05;;;;;;;22.90;50.50;97829.50;5156186;27;20022;-32
2022/10/27 06:52:40;;;;;;;11.43;5.63;;;;;;;22.91;50.23;97837.31;5156545;27;20483;-32
2022/10/27 06:55:06;;;;;;;17.15;7.20;;;;;;;22.92;50.31;97840.84;5137308;27;20043;-32
2022/10/27 06:57:39;;;;;;;18.10;7.00;;;;;;;22.97;50.07;97837.44;5156436;27;20489;-33
2022/10/27 07:00:05;;;;;;;;;;;;;;;22.94;50.18;97835.63;5156699;27;20019;-32
2022/10/27 07:02:31;;;;;;;18.33;6.70;;;;;;;22.85;50.49;97838.47;5156145;27;20358;-32
2022/10/27 07:04:56;;;;;;;12.60;5.93;;;;;;;22.82;50.84;97834.66;5156133;27;20483;-32
2022/10/27 07:07:21;;;;;;;18.85;6.22;;;;;;;22.84;50.58;97839.72;5156012;27;20097;-32
2022/10/27 07:09:47;;;;;;;18.48;7.18;;;;;;;22.91;50.50;97853.16;5155865;27;20015;-32
2022/10/27 07:12:12;;;;;;;13.63;5.95;;;;;;;22.84;50.89;97837.72;5137286;27;20099;-32
2022/10/27 07:14:38;;;;;;;16.55;6.10;;;;;;;22.91;50.92;97844.84;5155652;27;20026;-32
2022/10/27 07:17:03;;;;;;;19.48;6.28;;;;;;;22.97;50.42;97845.75;5156012;27;20019;-32
2022/10/27 07:19:29;;;;;;;15.55;6.07;;;;;;;22.98;50.45;97855.56;5155988;27;20462;-33
2022/10/27 07:21:54;;;;;;;14.85;5.82;;;;;;;22.99;50.56;97854.34;5155609;27;20377;-33
2022/10/27 07:24:19;;;;;;;13.52;6.05;;;;;;;22.77;50.99;97845.59;5155511;27;20022;-32
2022/10/27 07:26:45;;;;;;;24.02;6.30;;;;;;;22.87;50.84;97858.13;5155774;27;20029;-32
2022/10/27 07:29:11;;;;;;;17.67;6.30;;;;;;;22.92;50.85;97860.22;5155328;27;20502;-32
2022/10/27 07:31:37;;;;;;;14.77;6.47;;;;;;;22.95;50.83;97864.03;5155067;27;20023;-32
2022/10/27 07:34:02;;;;;;;15.20;6.03;;;;;;;22.99;50.95;97868.16;5154922;27;20474;-32
2022/10/27 07:36:27;;;;;;;15.25;6.65;;;;;;;22.97;50.68;97867.88;5155539;27;20029;-33
2022/10/27 07:38:53;;;;;;;20.50;7.00;;;;;;;22.26;54.35;97870.66;5155105;27;20044;-33
2022/10/27 07:41:18;;;;;;;25.27;7.88;;;;;;;22.06;56.58;97865.69;5155566;27;20023;-33
2022/10/27 07:43:44;;;;;;;24.10;7.30;;;;;;;21.80;57.89;97862.56;5155362;27;20026;-33
2022/10/27 07:46:10;;;;;;;23.65;7.10;;;;;;;21.80;58.03;97868.84;5154988;27;20079;-33
2022/10/27 07:48:35;;;;;;;29.23;8.48;;;;;;;21.55;58.77;97874.78;5155242;27;20018;-33
2022/10/27 07:51:01;;;;;;;19.70;7.18;;;;;;;22.01;57.37;97877.38;5155162;27;20051;-33
2022/10/27 07:53:26;;;;;;;25.33;6.60;;;;;;;22.46;55.61;97876.38;5132020;27;20054;-33
2022/10/27 07:55:53;;;;;;;20.38;6.55;;;;;;;22.51;55.55;97876.47;5132735;27;20407;-35
2022/10/27 07:58:18;;;;;;;17.70;6.32;;;;;;;22.69;54.76;97880.34;5134525;27;20092;-33
2022/10/27 08:00:46;;;;;;;18.92;6.57;;;;;;;22.81;54.16;97882.13;5134133;28;20526;-33
2022/10/27 08:03:19;;;;;;;22.50;6.32;;;;;;;22.83;54.09;97887.97;5134512;28;20080;-33
2022/10/27 08:05:46;;;;;;;15.20;6.68;;;;;;;22.81;53.83;97893.97;5134274;28;20513;-33
2022/10/27 08:08:11;;;;;;;18.42;7.05;;;;;;;22.84;54.04;97883.97;5134405;28;20114;-33
2022/10/27 08:10:38;;;;;;;23.40;7.25;;;;;;;22.84;53.56;97887.50;5134239;28;20054;-34
2022/10/27 08:13:05;;;;;;;15.65;6.50;;;;;;;22.82;54.09;97889.19;5134294;28;20046;-33
2022/10/27 08:15:31;;;;;;;17.73;6.25;;;;;;;22.83;53.67;97883.19;5134249;28;20102;-34
2022/10/27 08:18:00;;;;;;;19.10;6.13;;;;;;;22.89;53.60;97886.06;5134183;28;20027;-34
2022/10/27 08:20:30;;;;;;;16.50;6.22;;;;;;;22.90;53.53;97884.81;5134104;28;20019;-35
2022/10/27 08:23:00;;;;;;;17.90;6.78;;;;;;;22.89;53.71;97888.81;5134411;28;20097;-33
2022/10/27 08:25:26;;;;;;;19.00;5.95;;;;;;;22.89;53.44;97895.13;5134321;28;20412;-33
2022/10/27 08:27:52;;;;;;;19.83;6.03;;;;;;;22.90;53.73;97893.13;5134202;28;20023;-35
2022/10/27 08:30:19;;;;;;;13.73;5.90;;;;;;;22.89;53.36;97888.81;5134070;28;20540;-33
2022/10/27 08:32:44;;;;;;;12.98;6.32;;;;;;;22.93;53.74;97886.66;5134118;28;20023;-34
2022/10/27 08:35:10;;;;;;;17.55;6.03;;;;;;;22.83;54.07;97899.78;5134369;28;20110;-33
2022/10/27 08:37:35;;;;;;;16.05;6.00;;;;;;;22.87;53.59;97891.31;5133974;28;20054;-33
2022/10/27 08:40:00;;;;;;;14.68;5.97;;;;;;;22.98;53.80;97896.31;5133962;28;20019;-33
2022/10/27 08:43:09;;;;;;;16.75;6.55;;;;;;;22.99;53.21;97904.13;5134020;28;20030;-35
2022/10/27 08:45:57;;;;;;;12.70;6.05;;;;;;;22.86;53.74;97898.84;5095034;28;20043;-33
2022/10/27 08:48:26;;;;;;;15.68;6.15;;;;;;;22.95;53.83;97900.78;5134041;28;20031;-36
2022/10/27 08:50:52;;;;;;;15.70;6.32;;;;;;;22.99;53.53;97895.84;5133899;28;20023;-35
2022/10/27 08:53:30;;;;;;;16.75;5.78;;;;;;;22.97;53.33;97905.84;5133645;28;20486;-34
2022/10/27 08:56:02;;;;;;;17.00;6.57;;;;;;;23.01;53.31;97900.88;5133784;27;20477;-33
2022/10/27 08:58:36;;;;;;;14.83;6.87;;;;;;;23.02;53.40;97900.41;5137820;27;20023;-34
2022/10/27 09:01:08;;;;;;;12.85;5.97;;;;;;;22.89;54.03;97899.88;5137520;27;20023;-34
2022/10/27 09:03:56;;;;;;;14.53;6.70;;;;;;;22.76;54.89;97902.13;5138016;27;20015;-33
2022/10/27 09:06:49;;;;;;;17.40;6.53;;;;;;;22.91;54.04;97902.94;5137516;27;20292;-33
2022/10/27 09:09:52;;;;;;;14.05;5.75;;;;;;;22.97;53.64;97909.38;5119333;27;20023;-34
2022/10/27 09:12:58;;;;;;;17.58;6.70;;;;;;;22.90;53.97;97909.72;5137564;27;20479;-33
2022/10/27 09:15:42;;;;;;;11.93;5.38;;;;;;;22.84;54.18;97906.09;5118901;27;20038;-34
2022/10/27 09:18:20;;;;;;;13.82;5.78;;;;;;;22.98;53.75;97901.84;5137427;27;20027;-34
2022/10/27 09:21:08;;;;;;;15.45;5.47;;;;;;;22.90;53.91;97901.41;5137116;27;20055;-33
2022/10/27 09:23:39;;;;;;;20.23;6.10;;;;;;;22.98;53.81;97905.38;5137541;27;20435;-33
2022/10/27 09:26:06;;;;;;;15.10;5.80;;;;;;;22.97;53.43;97905.84;5137184;27;20019;-33
2022/10/27 09:28:45;;;;;;;12.02;5.25;;;;;;;23.03;53.32;97903.94;5137072;27;20022;-34
2022/10/27 09:31:19;;;;;;;19.98;5.93;;;;;;;23.03;53.56;97910.22;5137015;27;20467;-33
2022/10/27 09:33:55;;;;;;;12.57;5.80;;;;;;;23.04;53.36;97906.22;5137003;27;20066;-34
2022/10/27 09:36:22;;;;;;;13.38;6.00;;;;;;;23.07;53.22;97905.28;5118538;27;20027;-34
2022/10/27 09:38:48;;;;;;;14.50;5.55;;;;;;;23.09;53.25;97902.81;5118523;27;20023;-34
2022/10/27 09:41:13;;;;;;;17.73;6.07;;;;;;;22.97;53.55;97906.59;5137001;27;20356;-35
2022/10/27 09:43:39;;;;;;;14.57;5.45;;;;;;;23.07;53.56;97896.97;5136683;27;20023;-33
2022/10/27 09:46:11;;;;;;;15.23;5.43;;;;;;;23.02;53.46;97897.63;5136789;27;20155;-33
2022/10/27 09:48:38;;;;;;;14.52;5.55;;;;;;;23.07;53.49;97902.53;5136671;27;20100;-35
2022/10/27 09:51:13;;;;;;;10.38;5.32;;;;;;;23.11;53.42;97899.56;5136910;27;20520;-35
2022/10/27 09:53:39;;;;;;;12.70;5.60;;;;;;;23.06;53.51;97903.75;5136508;27;20051;-33
2022/10/27 09:56:05;;;;;;;13.93;5.75;;;;;;;23.11;53.73;97910.66;5136528;27;20030;-33
2022/10/27 09:58:41;;;;;;;12.30;5.55;;;;;;;23.11;53.73;97910.66;5136730;27;20027;-33
2022/10/27 10:01:09;;;;;;;15.00;5.32;;;;;;;23.13;53.45;97902.59;5136376;27;20382;-33
2022/10/27 10:03:34;;;;;;;16.73;5.72;;;;;;;23.11;53.45;97905.88;5136585;27;20023;-33
2022/10/27 10:06:04;;;;;;;12.48;4.97;;;;;;;23.17;53.36;97909.50;5136340;27;20037;-34
2022/10/27 10:08:35;;;;;;;11.00;5.57;;;;;;;23.07;53.66;97912.81;5136156;27;20019;-33
2022/10/27 10:11:21;;;;;;;13.63;6.28;;;;;;;23.06;53.78;97914.81;5136311;27;20489;-33
2022/10/27 10:13:59;;;;;;;14.38;6.35;;;;;;;23.16;53.25;97910.72;5136067;27;20035;-34
2022/10/27 10:16:28;;;;;;;15.95;6.03;;;;;;;23.15;53.76;97905.66;5136467;27;20019;-34
2022/10/27 10:19:06;;;;;;;15.65;5.88;;;;;;;23.13;53.42;97897.84;5136428;27;20387;-33
2022/10/27 10:21:48;;;;;;;14.18;5.55;;;;;;;23.13;53.65;97900.59;5136043;27;20026;-33
2022/10/27 10:24:32;;;;;;;12.15;5.45;;;;;;;23.18;53.67;97905.50;5135944;27;20019;-37
2022/10/27 10:27:00;;;;;;;13.30;5.68;;;;;;;23.19;53.84;97907.03;5136045;27;20023;-36
2022/10/27 10:29:35;;;;;;;14.95;5.60;;;;;;;23.17;53.69;97903.97;5135832;27;20027;-36
2022/10/27 10:32:14;;;;;;;14.90;6.05;;;;;;;23.16;53.66;97905.19;5135750;27;20019;-39
2022/10/27 10:34:44;;;;;;;14.93;5.40;;;;;;;23.13;53.61;97903.38;5135800;27;20098;-35
2022/10/27 10:37:28;;;;;;;11.73;5.90;;;;;;;23.11;53.85;97900.34;5135719;27;20052;-34
2022/10/27 10:39:53;;;;;;;12.85;5.78;;;;;;;23.08;53.60;97897.75;5135712;27;20053;-34
2022/10/27 10:42:19;;;;;;;15.32;5.30;;;;;;;23.13;53.64;97900.59;5135606;27;20031;-33
2022/10/27 10:44:44;;;;;;;9.68;5.82;;;;;;;23.13;53.42;97897.06;5135639;27;20019;-33
2022/10/27 10:47:22;;;;;;;14.77;5.68;;;;;;;23.17;53.50;97897.66;5135592;27;20083;-33
2022/10/27 10:49:52;;;;;;;11.23;5.70;;;;;;;23.14;53.57;97891.06;5135583;27;20467;-34
2022/10/27 10:52:21;;;;;;;15.27;5.65;;;;;;;23.12;53.40;97890.78;5135432;27;20023;-33
2022/10/27 10:54:47;;;;;;;20.38;6.22;;;;;;;23.18;53.68;97883.34;5135297;27;20035;-33
2022/10/27 10:57:35;;;;;;;11.90;5.65;;;;;;;23.15;53.48;97881.53;5135449;27;20398;-33
2022/10/27 11:00:04;;;;;;;13.07;5.43;;;;;;;23.16;53.45;97880.28;5135378;27;20023;-34
2022/10/27 11:02:31;;;;;;;15.50;5.43;;;;;;;23.20;53.36;97882.88;5135155;27;20092;-33
2022/10/27 11:05:10;;;;;;;15.77;5.63;;;;;;;23.21;53.32;97876.88;5135471;27;20352;-35
2022/10/27 11:07:36;;;;;;;10.20;5.38;;;;;;;23.13;53.52;97881.22;5135217;27;20084;-33
2022/10/27 11:10:15;;;;;;;15.90;6.32;;;;;;;23.16;53.64;97880.28;5135398;27;20019;-33
2022/10/27 11:12:48;;;;;;;15.73;5.45;;;;;;;23.16;53.65;97883.06;5135164;27;20057;-34
2022/10/27 11:15:26;;;;;;;9.48;5.60;;;;;;;23.21;53.44;97881.63;5134986;27;20072;-37
2022/10/27 11:17:55;;;;;;;11.18;5.80;;;;;;;23.23;53.20;97877.16;5135109;27;20383;-33
2022/10/27 11:20:24;;;;;;;10.40;4.82;;;;;;;23.26;52.96;97872.66;5134364;27;20467;-33
2022/10/27 11:22:52;;;;;;;12.85;5.95;;;;;;;23.22;53.03;97878.41;5135285;27;20027;-33
2022/10/27 11:25:25;;;;;;;11.07;5.03;;;;;;;23.29;52.82;97878.00;5134910;27;20471;-33
2022/10/27 11:28:03;;;;;;;9.85;4.70;;;;;;;23.25;52.97;97869.13;5134906;27;20038;-33
2022/10/27 11:30:30;;;;;;;12.57;4.80;;;;;;;23.25;52.81;97862.81;5134837;27;20474;-33
2022/10/27 11:33:02;;;;;;;16.73;5.53;;;;;;;23.22;52.92;97867.34;5134871;27;20023;-33
2022/10/27 11:35:43;;;;;;;12.57;4.93;;;;;;;23.19;53.18;97861.97;5134673;27;20483;-33
2022/10/27 11:38:38;;;;;;;11.23;4.68;;;;;;;23.21;53.16;97851.97;5134669;27;20038;-34